sensor_id;sensor_type;location;lat;lon;timestamp;P1;durP1;ratioP1;P2;durP2;ratioP2
51560;SDS011;37654;51.262;17.058;2023-07-13T00:02:14;9.18;;;5.05;;
51560;SDS011;37654;51.262;17.058;2023-07-13T00:04:40;10.38;;;4.63;;
51560;SDS011;37654;51.262;17.058;2023-07-13T00:07:06;8.63;;;4.85;;
51560;SDS011;37654;51.262;17.058;2023-07-13T00:09:32;7.88;;;4.78;;
51560;SDS011;37654;51.262;17.058;2023-07-13T00:11:58;8.05;;;4.75;;
51560;SDS011;37654;51.262;17.058;2023-07-13T00:14:24;7.50;;;4.90;;
51560;SDS011;37654;51.262;17.058;2023-07-13T00:16:51;10.52;;;5.47;;
51560;SDS011;37654;51.262;17.058;2023-07-13T00:19:17;9.30;;;4.72;;
51560;SDS011;37654;51.262;17.058;2023-07-13T00:21:43;9.35;;;4.50;;
51560;SDS011;37654;51.262;17.058;2023-07-13T00:24:10;7.78;;;4.97;;
51560;SDS011;37654;51.262;17.058;2023-07-13T00:26:38;8.32;;;3.95;;
51560;SDS011;37654;51.262;17.058;2023-07-13T00:29:04;5.70;;;4.10;;
51560;SDS011;37654;51.262;17.058;2023-07-13T00:31:34;10.40;;;3.97;;
51560;SDS011;37654;51.262;17.058;2023-07-13T00:34:01;5.80;;;3.45;;
51560;SDS011;37654;51.262;17.058;2023-07-13T00:36:27;4.03;;;3.25;;
51560;SDS011;37654;51.262;17.058;2023-07-13T00:38:52;5.38;;;3.13;;
51560;SDS011;37654;51.262;17.058;2023-07-13T00:41:18;6.45;;;3.42;;
51560;SDS011;37654;51.262;17.058;2023-07-13T00:43:44;10.48;;;3.72;;
51560;SDS011;37654;51.262;17.058;2023-07-13T00:48:54;8.25;;;3.47;;
51560;SDS011;37654;51.262;17.058;2023-07-13T00:51:26;6.28;;;3.72;;
51560;SDS011;37654;51.262;17.058;2023-07-13T00:53:56;6.88;;;3.28;;
51560;SDS011;37654;51.262;17.058;2023-07-13T00:56:23;6.95;;;3.58;;
51560;SDS011;37654;51.262;17.058;2023-07-13T00:58:49;5.15;;;3.50;;
51560;SDS011;37654;51.262;17.058;2023-07-13T01:01:15;8.52;;;3.67;;
51560;SDS011;37654;51.262;17.058;2023-07-13T01:03:41;5.32;;;2.92;;
51560;SDS011;37654;51.262;17.058;2023-07-13T01:06:07;5.05;;;2.30;;
51560;SDS011;37654;51.262;17.058;2023-07-13T01:08:33;5.57;;;2.60;;
51560;SDS011;37654;51.262;17.058;2023-07-13T01:10:58;4.07;;;2.00;;
51560;SDS011;37654;51.262;17.058;2023-07-13T01:13:24;5.65;;;2.30;;
51560;SDS011;37654;51.262;17.058;2023-07-13T01:15:51;4.38;;;2.90;;
51560;SDS011;37654;51.262;17.058;2023-07-13T01:18:25;4.95;;;3.38;;
51560;SDS011;37654;51.262;17.058;2023-07-13T01:20:56;5.40;;;2.80;;
51560;SDS011;37654;51.262;17.058;2023-07-13T01:23:23;7.13;;;3.55;;
51560;SDS011;37654;51.262;17.058;2023-07-13T01:25:50;8.75;;;3.88;;
51560;SDS011;37654;51.262;17.058;2023-07-13T01:28:17;7.40;;;2.65;;
51560;SDS011;37654;51.262;17.058;2023-07-13T01:30:43;15.88;;;4.15;;
51560;SDS011;37654;51.262;17.058;2023-07-13T01:33:11;4.55;;;2.72;;
51560;SDS011;37654;51.262;17.058;2023-07-13T01:35:38;5.28;;;2.17;;
51560;SDS011;37654;51.262;17.058;2023-07-13T01:38:04;5.55;;;2.03;;
51560;SDS011;37654;51.262;17.058;2023-07-13T01:40:30;6.45;;;2.40;;
51560;SDS011;37654;51.262;17.058;2023-07-13T01:42:57;7.35;;;2.75;;
51560;SDS011;37654;51.262;17.058;2023-07-13T01:45:23;7.20;;;2.65;;
51560;SDS011;37654;51.262;17.058;2023-07-13T01:47:49;4.68;;;3.05;;
51560;SDS011;37654;51.262;17.058;2023-07-13T01:50:15;4.50;;;2.40;;
51560;SDS011;37654;51.262;17.058;2023-07-13T01:52:40;3.33;;;2.15;;
51560;SDS011;37654;51.262;17.058;2023-07-13T01:55:06;4.30;;;2.42;;
51560;SDS011;37654;51.262;17.058;2023-07-13T01:57:33;5.03;;;2.83;;
51560;SDS011;37654;51.262;17.058;2023-07-13T01:59:58;4.32;;;3.40;;
51560;SDS011;37654;51.262;17.058;2023-07-13T02:02:24;7.13;;;2.80;;
51560;SDS011;37654;51.262;17.058;2023-07-13T02:04:49;4.93;;;3.20;;
51560;SDS011;37654;51.262;17.058;2023-07-13T02:07:15;4.45;;;2.70;;
51560;SDS011;37654;51.262;17.058;2023-07-13T02:09:41;8.13;;;3.28;;
51560;SDS011;37654;51.262;17.058;2023-07-13T02:12:07;6.15;;;3.08;;
51560;SDS011;37654;51.262;17.058;2023-07-13T02:14:33;4.03;;;2.70;;
51560;SDS011;37654;51.262;17.058;2023-07-13T02:16:59;3.83;;;2.60;;
51560;SDS011;37654;51.262;17.058;2023-07-13T02:19:24;8.38;;;3.33;;
51560;SDS011;37654;51.262;17.058;2023-07-13T02:21:50;5.63;;;3.60;;
51560;SDS011;37654;51.262;17.058;2023-07-13T02:24:16;5.95;;;3.17;;
51560;SDS011;37654;51.262;17.058;2023-07-13T02:26:45;7.30;;;3.00;;
51560;SDS011;37654;51.262;17.058;2023-07-13T02:29:11;6.57;;;4.35;;
51560;SDS011;37654;51.262;17.058;2023-07-13T02:31:37;6.05;;;3.65;;
51560;SDS011;37654;51.262;17.058;2023-07-13T02:34:03;8.93;;;3.65;;
51560;SDS011;37654;51.262;17.058;2023-07-13T02:36:29;8.20;;;3.67;;
51560;SDS011;37654;51.262;17.058;2023-07-13T02:38:55;5.97;;;4.88;;
51560;SDS011;37654;51.262;17.058;2023-07-13T02:41:21;5.40;;;3.10;;
51560;SDS011;37654;51.262;17.058;2023-07-13T02:43:48;6.22;;;3.67;;
51560;SDS011;37654;51.262;17.058;2023-07-13T02:46:13;6.28;;;3.75;;
51560;SDS011;37654;51.262;17.058;2023-07-13T02:48:39;6.88;;;4.20;;
51560;SDS011;37654;51.262;17.058;2023-07-13T02:51:06;5.00;;;3.78;;
51560;SDS011;37654;51.262;17.058;2023-07-13T02:53:33;6.50;;;4.30;;
51560;SDS011;37654;51.262;17.058;2023-07-13T02:56:02;9.80;;;4.47;;
51560;SDS011;37654;51.262;17.058;2023-07-13T02:58:27;4.75;;;3.30;;
51560;SDS011;37654;51.262;17.058;2023-07-13T03:00:53;6.53;;;3.15;;
51560;SDS011;37654;51.262;17.058;2023-07-13T03:03:20;6.15;;;3.45;;
51560;SDS011;37654;51.262;17.058;2023-07-13T03:05:46;4.88;;;3.45;;
51560;SDS011;37654;51.262;17.058;2023-07-13T03:08:15;12.77;;;3.35;;
51560;SDS011;37654;51.262;17.058;2023-07-13T03:10:41;7.47;;;3.35;;
51560;SDS011;37654;51.262;17.058;2023-07-13T03:13:07;7.68;;;3.45;;
51560;SDS011;37654;51.262;17.058;2023-07-13T03:15:32;4.53;;;2.45;;
51560;SDS011;37654;51.262;17.058;2023-07-13T03:17:58;6.07;;;3.10;;
51560;SDS011;37654;51.262;17.058;2023-07-13T03:20:24;7.10;;;3.47;;
51560;SDS011;37654;51.262;17.058;2023-07-13T03:22:49;9.30;;;3.50;;
51560;SDS011;37654;51.262;17.058;2023-07-13T03:25:15;5.15;;;3.28;;
51560;SDS011;37654;51.262;17.058;2023-07-13T03:27:40;6.93;;;3.45;;
51560;SDS011;37654;51.262;17.058;2023-07-13T03:30:06;6.32;;;3.30;;
51560;SDS011;37654;51.262;17.058;2023-07-13T03:32:33;9.38;;;3.95;;
51560;SDS011;37654;51.262;17.058;2023-07-13T03:34:58;8.20;;;3.42;;
51560;SDS011;37654;51.262;17.058;2023-07-13T03:37:24;6.57;;;4.05;;
51560;SDS011;37654;51.262;17.058;2023-07-13T03:39:50;6.22;;;3.35;;
51560;SDS011;37654;51.262;17.058;2023-07-13T03:42:16;4.55;;;3.15;;
51560;SDS011;37654;51.262;17.058;2023-07-13T03:44:41;5.47;;;3.65;;
51560;SDS011;37654;51.262;17.058;2023-07-13T03:47:11;4.97;;;3.65;;
51560;SDS011;37654;51.262;17.058;2023-07-13T03:49:37;6.50;;;3.70;;
51560;SDS011;37654;51.262;17.058;2023-07-13T03:52:02;7.25;;;3.42;;
51560;SDS011;37654;51.262;17.058;2023-07-13T03:54:29;6.78;;;3.17;;
51560;SDS011;37654;51.262;17.058;2023-07-13T03:56:54;8.18;;;2.78;;
51560;SDS011;37654;51.262;17.058;2023-07-13T03:59:20;3.92;;;2.28;;
51560;SDS011;37654;51.262;17.058;2023-07-13T04:01:46;3.72;;;2.53;;
51560;SDS011;37654;51.262;17.058;2023-07-13T04:04:12;4.70;;;2.83;;
51560;SDS011;37654;51.262;17.058;2023-07-13T04:06:38;4.85;;;2.85;;
51560;SDS011;37654;51.262;17.058;2023-07-13T04:09:03;6.57;;;3.20;;
51560;SDS011;37654;51.262;17.058;2023-07-13T04:11:33;4.18;;;2.33;;
51560;SDS011;37654;51.262;17.058;2023-07-13T04:14:01;7.95;;;2.67;;
51560;SDS011;37654;51.262;17.058;2023-07-13T04:16:27;6.80;;;2.40;;
51560;SDS011;37654;51.262;17.058;2023-07-13T04:18:53;4.90;;;2.17;;
51560;SDS011;37654;51.262;17.058;2023-07-13T04:21:22;3.85;;;2.38;;
51560;SDS011;37654;51.262;17.058;2023-07-13T04:23:48;5.57;;;2.60;;
51560;SDS011;37654;51.262;17.058;2023-07-13T04:26:13;9.70;;;4.30;;
51560;SDS011;37654;51.262;17.058;2023-07-13T04:28:39;7.63;;;3.15;;
51560;SDS011;37654;51.262;17.058;2023-07-13T04:31:04;5.53;;;3.15;;
51560;SDS011;37654;51.262;17.058;2023-07-13T04:33:30;4.20;;;2.40;;
51560;SDS011;37654;51.262;17.058;2023-07-13T04:35:56;5.63;;;2.33;;
51560;SDS011;37654;51.262;17.058;2023-07-13T04:38:23;8.30;;;2.00;;
51560;SDS011;37654;51.262;17.058;2023-07-13T04:40:49;5.72;;;1.73;;
51560;SDS011;37654;51.262;17.058;2023-07-13T04:43:16;6.30;;;3.33;;
51560;SDS011;37654;51.262;17.058;2023-07-13T04:45:42;6.03;;;2.65;;
51560;SDS011;37654;51.262;17.058;2023-07-13T04:48:08;4.38;;;2.00;;
51560;SDS011;37654;51.262;17.058;2023-07-13T04:50:35;8.40;;;2.47;;
51560;SDS011;37654;51.262;17.058;2023-07-13T04:53:02;8.05;;;3.33;;
51560;SDS011;37654;51.262;17.058;2023-07-13T04:55:29;12.60;;;4.00;;
51560;SDS011;37654;51.262;17.058;2023-07-13T04:57:55;9.68;;;3.33;;
51560;SDS011;37654;51.262;17.058;2023-07-13T05:00:23;10.70;;;3.58;;
51560;SDS011;37654;51.262;17.058;2023-07-13T05:02:49;9.13;;;3.50;;
51560;SDS011;37654;51.262;17.058;2023-07-13T05:05:15;12.02;;;4.07;;
51560;SDS011;37654;51.262;17.058;2023-07-13T05:07:41;9.88;;;3.15;;
51560;SDS011;37654;51.262;17.058;2023-07-13T05:10:06;8.70;;;3.30;;
51560;SDS011;37654;51.262;17.058;2023-07-13T05:12:32;9.18;;;3.97;;
51560;SDS011;37654;51.262;17.058;2023-07-13T05:14:58;11.52;;;4.47;;
51560;SDS011;37654;51.262;17.058;2023-07-13T05:17:24;8.07;;;3.72;;
51560;SDS011;37654;51.262;17.058;2023-07-13T05:19:50;10.45;;;3.85;;
51560;SDS011;37654;51.262;17.058;2023-07-13T05:22:15;8.60;;;3.72;;
51560;SDS011;37654;51.262;17.058;2023-07-13T05:24:41;9.10;;;3.97;;
51560;SDS011;37654;51.262;17.058;2023-07-13T05:27:06;10.38;;;4.18;;
51560;SDS011;37654;51.262;17.058;2023-07-13T05:29:32;10.82;;;3.20;;
51560;SDS011;37654;51.262;17.058;2023-07-13T05:31:57;10.52;;;3.53;;
51560;SDS011;37654;51.262;17.058;2023-07-13T05:34:23;12.30;;;3.70;;
51560;SDS011;37654;51.262;17.058;2023-07-13T05:36:49;8.52;;;3.90;;
51560;SDS011;37654;51.262;17.058;2023-07-13T05:39:14;10.77;;;3.45;;
51560;SDS011;37654;51.262;17.058;2023-07-13T05:41:41;11.93;;;3.35;;
51560;SDS011;37654;51.262;17.058;2023-07-13T05:44:06;7.25;;;3.30;;
51560;SDS011;37654;51.262;17.058;2023-07-13T05:46:32;4.50;;;2.92;;
51560;SDS011;37654;51.262;17.058;2023-07-13T05:48:57;6.60;;;2.70;;
51560;SDS011;37654;51.262;17.058;2023-07-13T05:51:23;10.00;;;3.08;;
51560;SDS011;37654;51.262;17.058;2023-07-13T05:53:48;4.00;;;2.63;;
51560;SDS011;37654;51.262;17.058;2023-07-13T05:56:14;8.23;;;4.45;;
51560;SDS011;37654;51.262;17.058;2023-07-13T05:58:39;5.57;;;2.33;;
51560;SDS011;37654;51.262;17.058;2023-07-13T06:01:06;7.80;;;3.15;;
51560;SDS011;37654;51.262;17.058;2023-07-13T06:03:34;4.93;;;3.08;;
51560;SDS011;37654;51.262;17.058;2023-07-13T06:06:00;6.45;;;2.75;;
51560;SDS011;37654;51.262;17.058;2023-07-13T06:08:26;4.88;;;2.65;;
51560;SDS011;37654;51.262;17.058;2023-07-13T06:10:52;2.92;;;2.00;;
51560;SDS011;37654;51.262;17.058;2023-07-13T06:13:18;6.70;;;2.53;;
51560;SDS011;37654;51.262;17.058;2023-07-13T06:15:53;6.28;;;2.60;;
51560;SDS011;37654;51.262;17.058;2023-07-13T06:18:18;4.47;;;2.42;;
51560;SDS011;37654;51.262;17.058;2023-07-13T06:20:44;7.03;;;2.88;;
51560;SDS011;37654;51.262;17.058;2023-07-13T06:23:09;3.38;;;2.17;;
51560;SDS011;37654;51.262;17.058;2023-07-13T06:25:35;3.35;;;1.88;;
51560;SDS011;37654;51.262;17.058;2023-07-13T06:28:00;7.10;;;2.38;;
51560;SDS011;37654;51.262;17.058;2023-07-13T06:30:26;3.40;;;2.10;;
51560;SDS011;37654;51.262;17.058;2023-07-13T06:32:52;2.90;;;1.67;;
51560;SDS011;37654;51.262;17.058;2023-07-13T06:35:18;4.40;;;2.13;;
51560;SDS011;37654;51.262;17.058;2023-07-13T06:37:43;2.70;;;2.08;;
51560;SDS011;37654;51.262;17.058;2023-07-13T06:40:09;4.72;;;1.83;;
51560;SDS011;37654;51.262;17.058;2023-07-13T06:42:35;3.00;;;1.70;;
51560;SDS011;37654;51.262;17.058;2023-07-13T06:45:01;4.15;;;2.20;;
51560;SDS011;37654;51.262;17.058;2023-07-13T06:47:26;2.22;;;1.52;;
51560;SDS011;37654;51.262;17.058;2023-07-13T06:49:52;2.45;;;1.70;;
51560;SDS011;37654;51.262;17.058;2023-07-13T06:52:18;7.15;;;2.17;;
51560;SDS011;37654;51.262;17.058;2023-07-13T06:54:43;4.95;;;2.10;;
51560;SDS011;37654;51.262;17.058;2023-07-13T06:57:09;10.60;;;2.28;;
51560;SDS011;37654;51.262;17.058;2023-07-13T06:59:35;2.42;;;1.60;;
51560;SDS011;37654;51.262;17.058;2023-07-13T07:02:00;2.55;;;1.75;;
51560;SDS011;37654;51.262;17.058;2023-07-13T07:04:26;5.00;;;2.22;;
51560;SDS011;37654;51.262;17.058;2023-07-13T07:06:51;6.78;;;2.15;;
51560;SDS011;37654;51.262;17.058;2023-07-13T07:09:17;4.40;;;1.65;;
51560;SDS011;37654;51.262;17.058;2023-07-13T07:11:43;4.85;;;2.05;;
51560;SDS011;37654;51.262;17.058;2023-07-13T07:14:08;5.68;;;2.50;;
51560;SDS011;37654;51.262;17.058;2023-07-13T07:16:34;7.60;;;2.85;;
51560;SDS011;37654;51.262;17.058;2023-07-13T07:19:00;7.70;;;2.75;;
51560;SDS011;37654;51.262;17.058;2023-07-13T07:21:25;9.20;;;2.42;;
51560;SDS011;37654;51.262;17.058;2023-07-13T07:23:52;6.63;;;3.15;;
51560;SDS011;37654;51.262;17.058;2023-07-13T07:26:18;5.13;;;2.67;;
51560;SDS011;37654;51.262;17.058;2023-07-13T07:28:43;5.95;;;3.10;;
51560;SDS011;37654;51.262;17.058;2023-07-13T07:31:09;7.38;;;3.35;;
51560;SDS011;37654;51.262;17.058;2023-07-13T07:33:35;7.63;;;3.78;;
51560;SDS011;37654;51.262;17.058;2023-07-13T07:36:00;6.00;;;3.20;;
51560;SDS011;37654;51.262;17.058;2023-07-13T07:38:26;8.25;;;3.20;;
51560;SDS011;37654;51.262;17.058;2023-07-13T07:40:52;7.00;;;4.40;;
51560;SDS011;37654;51.262;17.058;2023-07-13T07:43:18;7.40;;;3.83;;
51560;SDS011;37654;51.262;17.058;2023-07-13T07:45:44;7.75;;;4.05;;
51560;SDS011;37654;51.262;17.058;2023-07-13T07:48:10;6.18;;;3.92;;
51560;SDS011;37654;51.262;17.058;2023-07-13T07:50:36;8.60;;;4.18;;
51560;SDS011;37654;51.262;17.058;2023-07-13T07:53:03;7.13;;;4.05;;
51560;SDS011;37654;51.262;17.058;2023-07-13T07:55:32;7.75;;;4.50;;
51560;SDS011;37654;51.262;17.058;2023-07-13T07:57:58;6.70;;;4.60;;
51560;SDS011;37654;51.262;17.058;2023-07-13T08:00:24;7.03;;;4.40;;
51560;SDS011;37654;51.262;17.058;2023-07-13T08:02:49;5.80;;;3.78;;
51560;SDS011;37654;51.262;17.058;2023-07-13T08:05:15;7.78;;;3.95;;
51560;SDS011;37654;51.262;17.058;2023-07-13T08:07:41;7.50;;;4.22;;
51560;SDS011;37654;51.262;17.058;2023-07-13T08:10:07;4.28;;;2.65;;
51560;SDS011;37654;51.262;17.058;2023-07-13T08:12:36;5.85;;;3.15;;
51560;SDS011;37654;51.262;17.058;2023-07-13T08:15:03;3.95;;;2.83;;
51560;SDS011;37654;51.262;17.058;2023-07-13T08:17:29;7.60;;;3.00;;
51560;SDS011;37654;51.262;17.058;2023-07-13T08:19:55;6.32;;;3.28;;
51560;SDS011;37654;51.262;17.058;2023-07-13T08:22:20;8.00;;;2.80;;
51560;SDS011;37654;51.262;17.058;2023-07-13T08:24:46;6.78;;;2.40;;
51560;SDS011;37654;51.262;17.058;2023-07-13T08:27:12;4.03;;;2.60;;
51560;SDS011;37654;51.262;17.058;2023-07-13T08:29:38;4.85;;;2.00;;
51560;SDS011;37654;51.262;17.058;2023-07-13T08:32:05;7.20;;;2.25;;
51560;SDS011;37654;51.262;17.058;2023-07-13T08:34:34;7.65;;;2.20;;
51560;SDS011;37654;51.262;17.058;2023-07-13T08:37:01;6.70;;;2.70;;
51560;SDS011;37654;51.262;17.058;2023-07-13T08:39:28;5.93;;;2.65;;
51560;SDS011;37654;51.262;17.058;2023-07-13T08:41:56;7.90;;;2.70;;
51560;SDS011;37654;51.262;17.058;2023-07-13T08:44:27;4.80;;;3.03;;
51560;SDS011;37654;51.262;17.058;2023-07-13T08:47:03;4.18;;;2.80;;
51560;SDS011;37654;51.262;17.058;2023-07-13T08:49:30;5.75;;;2.70;;
51560;SDS011;37654;51.262;17.058;2023-07-13T08:52:44;7.38;;;3.03;;
51560;SDS011;37654;51.262;17.058;2023-07-13T08:54:59;4.75;;;2.83;;
51560;SDS011;37654;51.262;17.058;2023-07-13T08:57:31;4.43;;;2.88;;
51560;SDS011;37654;51.262;17.058;2023-07-13T08:59:59;4.10;;;3.15;;
51560;SDS011;37654;51.262;17.058;2023-07-13T09:02:28;4.28;;;2.25;;
51560;SDS011;37654;51.262;17.058;2023-07-13T09:05:14;4.88;;;2.28;;
51560;SDS011;37654;51.262;17.058;2023-07-13T09:10:44;4.28;;;2.20;;
51560;SDS011;37654;51.262;17.058;2023-07-13T09:13:20;4.07;;;2.35;;
51560;SDS011;37654;51.262;17.058;2023-07-13T09:16:01;4.03;;;1.90;;
51560;SDS011;37654;51.262;17.058;2023-07-13T09:21:03;2.78;;;2.03;;
51560;SDS011;37654;51.262;17.058;2023-07-13T09:23:33;5.53;;;2.17;;
51560;SDS011;37654;51.262;17.058;2023-07-13T09:26:02;3.05;;;2.25;;
51560;SDS011;37654;51.262;17.058;2023-07-13T09:28:37;2.45;;;1.88;;
51560;SDS011;37654;51.262;17.058;2023-07-13T09:33:43;6.65;;;2.10;;
51560;SDS011;37654;51.262;17.058;2023-07-13T09:36:43;2.67;;;1.63;;
51560;SDS011;37654;51.262;17.058;2023-07-13T09:44:06;3.08;;;1.80;;
51560;SDS011;37654;51.262;17.058;2023-07-13T09:46:34;2.83;;;1.55;;
51560;SDS011;37654;51.262;17.058;2023-07-13T09:49:00;3.97;;;1.65;;
51560;SDS011;37654;51.262;17.058;2023-07-13T09:51:25;4.50;;;1.55;;
51560;SDS011;37654;51.262;17.058;2023-07-13T09:53:51;4.65;;;1.60;;
51560;SDS011;37654;51.262;17.058;2023-07-13T09:56:23;2.88;;;1.80;;
51560;SDS011;37654;51.262;17.058;2023-07-13T09:58:53;2.35;;;1.40;;
51560;SDS011;37654;51.262;17.058;2023-07-13T10:01:30;3.28;;;1.60;;
51560;SDS011;37654;51.262;17.058;2023-07-13T10:04:00;6.07;;;1.58;;
51560;SDS011;37654;51.262;17.058;2023-07-13T10:06:27;1.83;;;1.15;;
51560;SDS011;37654;51.262;17.058;2023-07-13T10:08:52;2.25;;;1.35;;
51560;SDS011;37654;51.262;17.058;2023-07-13T10:11:26;5.60;;;1.80;;
51560;SDS011;37654;51.262;17.058;2023-07-13T10:14:02;3.55;;;1.67;;
51560;SDS011;37654;51.262;17.058;2023-07-13T10:16:35;2.92;;;1.33;;
51560;SDS011;37654;51.262;17.058;2023-07-13T10:19:04;1.95;;;1.42;;
51560;SDS011;37654;51.262;17.058;2023-07-13T10:21:37;1.58;;;1.45;;
51560;SDS011;37654;51.262;17.058;2023-07-13T10:24:15;2.42;;;1.13;;
51560;SDS011;37654;51.262;17.058;2023-07-13T10:26:47;2.28;;;1.60;;
51560;SDS011;37654;51.262;17.058;2023-07-13T10:29:17;5.03;;;1.42;;
51560;SDS011;37654;51.262;17.058;2023-07-13T10:31:44;3.95;;;1.20;;
51560;SDS011;37654;51.262;17.058;2023-07-13T10:34:11;4.28;;;1.63;;
51560;SDS011;37654;51.262;17.058;2023-07-13T10:36:44;2.55;;;1.40;;
51560;SDS011;37654;51.262;17.058;2023-07-13T10:39:24;3.75;;;1.65;;
51560;SDS011;37654;51.262;17.058;2023-07-13T10:41:53;5.40;;;2.22;;
51560;SDS011;37654;51.262;17.058;2023-07-13T10:44:26;3.75;;;1.50;;
51560;SDS011;37654;51.262;17.058;2023-07-13T10:47:01;5.85;;;1.90;;
51560;SDS011;37654;51.262;17.058;2023-07-13T10:49:31;4.10;;;1.20;;
51560;SDS011;37654;51.262;17.058;2023-07-13T10:51:58;3.22;;;1.50;;
51560;SDS011;37654;51.262;17.058;2023-07-13T10:54:29;2.60;;;1.55;;
51560;SDS011;37654;51.262;17.058;2023-07-13T10:59:37;3.20;;;1.55;;
51560;SDS011;37654;51.262;17.058;2023-07-13T11:04:43;3.15;;;1.50;;
51560;SDS011;37654;51.262;17.058;2023-07-13T11:07:20;3.33;;;1.85;;
51560;SDS011;37654;51.262;17.058;2023-07-13T11:09:51;4.75;;;1.45;;
51560;SDS011;37654;51.262;17.058;2023-07-13T11:12:26;4.10;;;2.00;;
51560;SDS011;37654;51.262;17.058;2023-07-13T11:17:29;4.32;;;2.05;;
51560;SDS011;37654;51.262;17.058;2023-07-13T11:20:08;3.00;;;1.55;;
51560;SDS011;37654;51.262;17.058;2023-07-13T11:22:45;4.60;;;2.30;;
51560;SDS011;37654;51.262;17.058;2023-07-13T11:28:37;2.58;;;1.60;;
51560;SDS011;37654;51.262;17.058;2023-07-13T11:33:25;6.65;;;1.95;;
51560;SDS011;37654;51.262;17.058;2023-07-13T11:36:13;4.25;;;1.95;;
51560;SDS011;37654;51.262;17.058;2023-07-13T11:38:43;8.18;;;1.80;;
51560;SDS011;37654;51.262;17.058;2023-07-13T11:44:07;7.25;;;2.00;;
51560;SDS011;37654;51.262;17.058;2023-07-13T11:46:38;5.15;;;2.45;;
51560;SDS011;37654;51.262;17.058;2023-07-13T11:49:04;5.85;;;1.98;;
51560;SDS011;37654;51.262;17.058;2023-07-13T11:51:33;3.58;;;1.60;;
51560;SDS011;37654;51.262;17.058;2023-07-13T11:54:04;4.57;;;2.03;;
51560;SDS011;37654;51.262;17.058;2023-07-13T11:56:36;3.92;;;1.92;;
51560;SDS011;37654;51.262;17.058;2023-07-13T11:59:06;5.18;;;1.75;;
51560;SDS011;37654;51.262;17.058;2023-07-13T12:01:33;3.67;;;2.05;;
51560;SDS011;37654;51.262;17.058;2023-07-13T12:04:02;7.40;;;2.00;;
51560;SDS011;37654;51.262;17.058;2023-07-13T12:06:30;3.78;;;2.13;;
51560;SDS011;37654;51.262;17.058;2023-07-13T12:08:58;4.38;;;2.58;;
51560;SDS011;37654;51.262;17.058;2023-07-13T12:11:26;5.00;;;1.60;;
51560;SDS011;37654;51.262;17.058;2023-07-13T12:13:52;3.00;;;1.60;;
51560;SDS011;37654;51.262;17.058;2023-07-13T12:21:18;5.07;;;1.88;;
51560;SDS011;37654;51.262;17.058;2023-07-13T12:23:48;3.45;;;1.85;;
51560;SDS011;37654;51.262;17.058;2023-07-13T12:26:15;3.08;;;1.55;;
51560;SDS011;37654;51.262;17.058;2023-07-13T12:31:32;5.53;;;1.38;;
51560;SDS011;37654;51.262;17.058;2023-07-13T12:34:09;2.92;;;1.20;;
51560;SDS011;37654;51.262;17.058;2023-07-13T12:37:12;8.45;;;1.63;;
51560;SDS011;37654;51.262;17.058;2023-07-13T12:39:37;4.82;;;1.60;;
51560;SDS011;37654;51.262;17.058;2023-07-13T12:42:16;1.83;;;1.35;;
51560;SDS011;37654;51.262;17.058;2023-07-13T12:44:56;6.90;;;1.47;;
51560;SDS011;37654;51.262;17.058;2023-07-13T12:47:42;3.08;;;1.50;;
51560;SDS011;37654;51.262;17.058;2023-07-13T12:50:16;4.80;;;1.58;;
51560;SDS011;37654;51.262;17.058;2023-07-13T12:52:44;3.78;;;1.75;;
51560;SDS011;37654;51.262;17.058;2023-07-13T12:55:19;1.92;;;1.48;;
51560;SDS011;37654;51.262;17.058;2023-07-13T12:57:56;3.20;;;1.27;;
51560;SDS011;37654;51.262;17.058;2023-07-13T13:00:32;6.15;;;1.75;;
51560;SDS011;37654;51.262;17.058;2023-07-13T13:05:39;3.13;;;1.75;;
51560;SDS011;37654;51.262;17.058;2023-07-13T13:08:07;4.55;;;1.85;;
51560;SDS011;37654;51.262;17.058;2023-07-13T13:10:36;3.08;;;1.77;;
51560;SDS011;37654;51.262;17.058;2023-07-13T13:13:01;4.55;;;1.88;;
51560;SDS011;37654;51.262;17.058;2023-07-13T13:15:28;5.07;;;1.30;;
51560;SDS011;37654;51.262;17.058;2023-07-13T13:17:55;2.42;;;1.17;;
51560;SDS011;37654;51.262;17.058;2023-07-13T13:20:21;3.85;;;1.60;;
51560;SDS011;37654;51.262;17.058;2023-07-13T13:22:47;2.90;;;1.55;;
51560;SDS011;37654;51.262;17.058;2023-07-13T13:25:13;2.00;;;1.40;;
51560;SDS011;37654;51.262;17.058;2023-07-13T13:27:40;5.65;;;1.85;;
51560;SDS011;37654;51.262;17.058;2023-07-13T13:30:13;4.05;;;2.08;;
51560;SDS011;37654;51.262;17.058;2023-07-13T13:32:41;4.43;;;1.70;;
51560;SDS011;37654;51.262;17.058;2023-07-13T13:35:18;1.92;;;1.20;;
51560;SDS011;37654;51.262;17.058;2023-07-13T13:37:46;5.15;;;1.52;;
51560;SDS011;37654;51.262;17.058;2023-07-13T13:40:17;7.25;;;1.38;;
51560;SDS011;37654;51.262;17.058;2023-07-13T13:42:48;3.80;;;1.08;;
51560;SDS011;37654;51.262;17.058;2023-07-13T13:45:14;4.20;;;1.15;;
51560;SDS011;37654;51.262;17.058;2023-07-13T13:47:43;2.50;;;1.40;;
51560;SDS011;37654;51.262;17.058;2023-07-13T13:50:20;4.10;;;1.88;;
51560;SDS011;37654;51.262;17.058;2023-07-13T13:52:49;2.90;;;1.23;;
51560;SDS011;37654;51.262;17.058;2023-07-13T13:55:16;3.45;;;1.25;;
51560;SDS011;37654;51.262;17.058;2023-07-13T13:57:46;5.50;;;1.45;;
51560;SDS011;37654;51.262;17.058;2023-07-13T14:00:13;5.63;;;1.05;;
51560;SDS011;37654;51.262;17.058;2023-07-13T14:02:42;5.30;;;1.35;;
51560;SDS011;37654;51.262;17.058;2023-07-13T14:05:13;2.22;;;1.40;;
51560;SDS011;37654;51.262;17.058;2023-07-13T14:07:41;5.35;;;1.33;;
51560;SDS011;37654;51.262;17.058;2023-07-13T14:10:16;4.50;;;1.13;;
51560;SDS011;37654;51.262;17.058;2023-07-13T14:12:47;2.75;;;1.33;;
51560;SDS011;37654;51.262;17.058;2023-07-13T14:15:18;2.25;;;1.40;;
51560;SDS011;37654;51.262;17.058;2023-07-13T14:17:46;5.90;;;1.63;;
51560;SDS011;37654;51.262;17.058;2023-07-13T14:20:15;6.10;;;1.30;;
51560;SDS011;37654;51.262;17.058;2023-07-13T14:22:42;5.53;;;1.15;;
51560;SDS011;37654;51.262;17.058;2023-07-13T14:25:13;3.40;;;1.98;;
51560;SDS011;37654;51.262;17.058;2023-07-13T14:27:39;5.72;;;1.30;;
51560;SDS011;37654;51.262;17.058;2023-07-13T14:30:13;4.70;;;1.30;;
51560;SDS011;37654;51.262;17.058;2023-07-13T14:32:39;4.10;;;1.10;;
51560;SDS011;37654;51.262;17.058;2023-07-13T14:35:07;3.35;;;1.40;;
51560;SDS011;37654;51.262;17.058;2023-07-13T14:37:35;7.00;;;1.70;;
51560;SDS011;37654;51.262;17.058;2023-07-13T14:40:01;3.13;;;1.02;;
51560;SDS011;37654;51.262;17.058;2023-07-13T14:42:27;2.13;;;1.35;;
51560;SDS011;37654;51.262;17.058;2023-07-13T14:44:53;3.88;;;1.10;;
51560;SDS011;37654;51.262;17.058;2023-07-13T14:47:19;2.53;;;1.05;;
51560;SDS011;37654;51.262;17.058;2023-07-13T14:49:45;2.08;;;1.45;;
51560;SDS011;37654;51.262;17.058;2023-07-13T14:52:17;3.28;;;1.33;;
51560;SDS011;37654;51.262;17.058;2023-07-13T14:54:45;7.72;;;1.75;;
51560;SDS011;37654;51.262;17.058;2023-07-13T14:57:11;4.25;;;1.58;;
51560;SDS011;37654;51.262;17.058;2023-07-13T14:59:41;3.90;;;1.80;;
51560;SDS011;37654;51.262;17.058;2023-07-13T15:04:52;3.35;;;2.08;;
51560;SDS011;37654;51.262;17.058;2023-07-13T15:07:18;4.50;;;2.00;;
51560;SDS011;37654;51.262;17.058;2023-07-13T15:09:45;4.95;;;1.80;;
51560;SDS011;37654;51.262;17.058;2023-07-13T15:12:12;3.05;;;1.80;;
51560;SDS011;37654;51.262;17.058;2023-07-13T15:14:38;4.50;;;2.08;;
51560;SDS011;37654;51.262;17.058;2023-07-13T15:17:04;3.22;;;1.63;;
51560;SDS011;37654;51.262;17.058;2023-07-13T15:19:30;3.92;;;2.28;;
51560;SDS011;37654;51.262;17.058;2023-07-13T15:21:57;3.15;;;1.60;;
51560;SDS011;37654;51.262;17.058;2023-07-13T15:24:23;4.40;;;2.00;;